Terminal Aerodrome Forecast
Issued by NWS Wilmington, OH

Current Version | Previous Version | Graphics & Text | Print | Product List | Glossary On
Versions: 1 2 3 4 5 6 7 8 9 10 11 12 13 14 15 16 17
000
FTUS41 KILN 220900 AAA
TAFCMH
TAF AMD
KCMH 220951Z 2210/2306 24007KT P6SM SCT028 OVC050
      TEMPO 2210/2212 5SM -SHRA BR BKN028
     FM221200 26010KT P6SM SCT015 OVC050
      TEMPO 2212/2214 BKN015
     FM221400 30014KT P6SM SCT020 BKN050
     FM221600 31017G25KT P6SM FEW040
     FM230000 32011KT P6SM SKC=

USA.gov is the U.S. government's official web portal to all federal, state and local government web resources and services.